createdAt,value
2018-09-24T00:01:04.192Z,18.10
2018-09-24T00:03:33.110Z,21.60
2018-09-24T00:06:01.829Z,22.50
2018-09-24T00:08:30.630Z,17.03
2018-09-24T00:10:59.608Z,17.83
2018-09-24T00:13:28.590Z,15.93
2018-09-24T00:15:57.413Z,17.80
2018-09-24T00:18:26.208Z,20.73
2018-09-24T00:20:55.031Z,16.37
2018-09-24T00:23:24.022Z,18.43
2018-09-24T00:25:52.707Z,22.83
2018-09-24T00:28:21.568Z,17.00
2018-09-24T00:30:50.662Z,16.00
2018-09-24T00:33:19.561Z,17.27
2018-09-24T00:35:48.444Z,22.10
2018-09-24T00:38:17.353Z,19.40
2018-09-24T00:40:46.517Z,15.93
2018-09-24T00:43:15.669Z,17.83
2018-09-24T00:45:44.735Z,16.13
2018-09-24T00:48:13.504Z,18.17
2018-09-24T00:50:42.134Z,15.13
2018-09-24T00:53:10.840Z,16.47
2018-09-24T00:55:39.697Z,17.17
2018-09-24T00:58:08.683Z,16.87
2018-09-24T01:00:37.614Z,16.23
2018-09-24T01:03:06.702Z,17.83
2018-09-24T01:05:35.895Z,25.77
2018-09-24T01:08:05.011Z,20.20
2018-09-24T01:10:33.897Z,17.17
2018-09-24T01:13:02.775Z,16.43
2018-09-24T01:15:31.745Z,19.27
2018-09-24T01:18:00.582Z,17.77
2018-09-24T01:20:29.322Z,17.73
2018-09-24T01:22:57.907Z,19.20
2018-09-24T01:25:26.538Z,15.57
2018-09-24T01:27:55.394Z,18.83
2018-09-24T01:30:24.359Z,17.53
2018-09-24T01:32:53.266Z,22.87
2018-09-24T01:35:21.985Z,21.60
2018-09-24T01:37:50.939Z,17.13
2018-09-24T01:40:19.935Z,17.43
2018-09-24T01:42:49.174Z,17.60
2018-09-24T01:45:17.927Z,20.07
2018-09-24T01:47:46.773Z,19.80
2018-09-24T01:50:15.514Z,21.37
2018-09-24T01:52:44.254Z,22.13
2018-09-24T01:55:13.039Z,20.37
2018-09-24T01:57:42.056Z,21.07
2018-09-24T02:00:11.102Z,20.80
2018-09-24T02:02:40.062Z,18.33
2018-09-24T02:05:14.847Z,20.37
2018-09-24T02:07:43.829Z,22.17
2018-09-24T02:10:13.002Z,21.60
2018-09-24T02:12:42.207Z,23.07
2018-09-24T02:15:11.113Z,18.27
2018-09-24T02:17:40.012Z,20.80
2018-09-24T02:20:08.670Z,19.67
2018-09-24T02:22:37.830Z,20.73
2018-09-24T02:25:06.889Z,18.67
2018-09-24T02:27:35.788Z,20.47
2018-09-24T02:30:05.139Z,19.60
2018-09-24T02:32:34.036Z,18.43
2018-09-24T02:35:03.026Z,23.53
2018-09-24T02:37:31.937Z,24.87
2018-09-24T02:40:00.830Z,23.27
2018-09-24T02:42:29.626Z,28.63
2018-09-24T02:44:59.394Z,25.27
2018-09-24T02:47:32.544Z,21.87
2018-09-24T02:50:02.779Z,22.50
2018-09-24T02:52:31.485Z,28.43
2018-09-24T02:55:00.515Z,26.30
2018-09-24T02:57:29.335Z,25.87
2018-09-24T02:59:58.327Z,23.63
2018-09-24T03:02:27.126Z,25.23
2018-09-24T03:04:57.005Z,20.37
2018-09-24T03:07:25.843Z,22.67
2018-09-24T03:09:54.923Z,24.93
2018-09-24T03:12:24.014Z,27.83
2018-09-24T03:14:53.027Z,22.47
2018-09-24T03:17:22.184Z,27.47
2018-09-24T03:19:50.775Z,25.00
2018-09-24T03:22:22.625Z,27.67
2018-09-24T03:24:51.864Z,25.37
2018-09-24T03:27:20.950Z,23.40
2018-09-24T03:29:49.707Z,21.17
2018-09-24T03:32:18.607Z,24.13
2018-09-24T03:34:47.531Z,26.60
2018-09-24T03:37:16.468Z,30.40
2018-09-24T03:39:45.443Z,21.70
2018-09-24T03:42:14.312Z,32.33
2018-09-24T03:44:43.462Z,21.17
2018-09-24T03:47:12.661Z,24.17
2018-09-24T03:49:41.310Z,25.57
2018-09-24T03:52:10.070Z,31.07
2018-09-24T03:54:38.800Z,24.73
2018-09-24T03:57:07.613Z,24.97
2018-09-24T03:59:36.451Z,28.63
2018-09-24T04:02:05.130Z,27.23
2018-09-24T04:04:39.387Z,29.67
2018-09-24T04:07:13.351Z,28.70
2018-09-24T04:09:47.607Z,29.73
2018-09-24T04:12:21.366Z,27.40
2018-09-24T04:14:55.800Z,27.83
2018-09-24T04:17:29.784Z,29.53
2018-09-24T04:20:03.947Z,27.70
2018-09-24T04:22:37.879Z,31.07
2018-09-24T04:25:11.983Z,31.10
2018-09-24T04:27:45.994Z,26.53
2018-09-24T04:30:19.939Z,30.27
2018-09-24T04:32:54.064Z,32.07
2018-09-24T04:35:28.298Z,30.60
2018-09-24T04:38:02.626Z,31.27
2018-09-24T04:40:36.623Z,27.07
2018-09-24T04:43:10.686Z,32.40
2018-09-24T04:45:44.567Z,41.60
2018-09-24T04:48:18.339Z,30.13
2018-09-24T04:50:52.519Z,34.30
2018-09-24T04:53:26.491Z,32.93
2018-09-24T04:56:00.803Z,27.63
2018-09-24T04:58:34.865Z,39.17
2018-09-24T05:01:08.865Z,34.63
2018-09-24T05:03:42.768Z,27.67
2018-09-24T05:06:16.947Z,43.00
2018-09-24T05:08:50.982Z,29.97
2018-09-24T05:11:25.198Z,29.97
2018-09-24T05:13:59.004Z,31.53
2018-09-24T05:16:32.894Z,30.63
2018-09-24T05:19:06.813Z,38.13
2018-09-24T05:21:40.691Z,36.33
2018-09-24T05:24:14.806Z,26.63
2018-09-24T05:26:48.743Z,26.13
2018-09-24T05:29:22.634Z,31.10
2018-09-24T05:31:56.801Z,39.87
2018-09-24T05:34:30.818Z,26.60
2018-09-24T05:37:04.996Z,28.27
2018-09-24T05:39:39.225Z,28.50
2018-09-24T05:42:13.619Z,25.17
2018-09-24T05:44:47.733Z,26.00
2018-09-24T05:47:21.698Z,23.10
2018-09-24T05:49:55.837Z,27.33
2018-09-24T05:52:29.632Z,29.33
2018-09-24T05:55:03.596Z,31.30
2018-09-24T05:57:37.724Z,34.37
2018-09-24T06:00:12.090Z,35.07
2018-09-24T06:02:46.098Z,30.63
2018-09-24T06:05:19.982Z,29.53
2018-09-24T06:07:53.908Z,30.97
2018-09-24T06:10:27.830Z,34.87
2018-09-24T06:13:01.880Z,33.13
2018-09-24T06:15:36.076Z,30.63
2018-09-24T06:18:09.888Z,35.57
2018-09-24T06:20:44.012Z,29.63
2018-09-24T06:23:18.314Z,28.20
2018-09-24T06:25:52.412Z,31.33
2018-09-24T06:28:26.328Z,26.63
2018-09-24T06:31:00.287Z,31.83
2018-09-24T06:33:34.398Z,34.67
2018-09-24T06:36:08.546Z,39.77
2018-09-24T06:38:42.613Z,28.90
2018-09-24T06:41:16.378Z,33.57
2018-09-24T06:43:50.243Z,26.57
2018-09-24T06:46:24.296Z,33.07
2018-09-24T06:48:58.120Z,31.23
2018-09-24T06:51:32.829Z,29.13
2018-09-24T06:54:06.887Z,39.70
2018-09-24T06:56:40.837Z,30.97
2018-09-24T06:59:14.882Z,29.10
2018-09-24T07:01:48.924Z,37.57
2018-09-24T07:04:22.932Z,36.90
2018-09-24T07:06:56.864Z,31.60
2018-09-24T07:09:30.711Z,31.00
2018-09-24T07:12:04.704Z,33.77
2018-09-24T07:14:38.867Z,33.60
2018-09-24T07:17:12.851Z,32.77
2018-09-24T07:19:46.845Z,35.80
2018-09-24T07:22:21.112Z,27.13
2018-09-24T07:24:55.343Z,30.07
2018-09-24T07:27:29.250Z,30.30
2018-09-24T07:30:03.472Z,33.73
2018-09-24T07:32:37.468Z,31.73
2018-09-24T07:35:11.794Z,24.53
2018-09-24T07:37:45.976Z,25.83
2018-09-24T07:40:19.751Z,34.50
2018-09-24T07:42:53.773Z,31.83
2018-09-24T07:45:27.862Z,27.03
2018-09-24T07:48:01.844Z,30.93
2018-09-24T07:50:36.248Z,24.00
2018-09-24T07:53:10.379Z,32.63
2018-09-24T07:55:44.323Z,24.60
2018-09-24T07:58:18.481Z,22.40
2018-09-24T08:00:52.427Z,20.47
2018-09-24T08:03:26.519Z,26.05
2018-09-24T08:06:00.418Z,20.65
2018-09-24T08:08:34.648Z,30.08
2018-09-24T08:11:09.617Z,28.40
2018-09-24T08:13:43.618Z,27.95
2018-09-24T08:16:17.772Z,25.55
2018-09-24T08:18:52.011Z,27.00
2018-09-24T08:21:26.354Z,27.35
2018-09-24T08:24:00.538Z,29.32
2018-09-24T08:26:34.352Z,22.02
2018-09-24T08:29:08.383Z,25.00
2018-09-24T08:31:42.399Z,27.90
2018-09-24T08:34:16.535Z,19.87
2018-09-24T08:36:50.680Z,22.22
2018-09-24T08:39:24.975Z,24.60
2018-09-24T08:41:58.897Z,17.00
2018-09-24T08:44:32.831Z,26.35
2018-09-24T08:47:06.744Z,21.77
2018-09-24T08:49:40.840Z,20.15
2018-09-24T08:52:14.969Z,18.42
2018-09-24T08:54:48.956Z,20.62
2018-09-24T08:57:23.035Z,16.87
2018-09-24T08:59:57.129Z,23.38
2018-09-24T09:02:31.479Z,23.80
2018-09-24T09:05:05.288Z,15.08
2018-09-24T09:07:39.306Z,26.27
2018-09-24T09:10:13.148Z,19.95
2018-09-24T09:12:47.291Z,17.50
2018-09-24T09:15:21.131Z,15.72
2018-09-24T09:17:55.250Z,12.28
2018-09-24T09:20:29.384Z,19.90
2018-09-24T09:23:03.333Z,15.78
2018-09-24T09:25:37.413Z,47.30
2018-09-24T09:28:11.257Z,18.23
2018-09-24T09:30:45.259Z,18.55
2018-09-24T09:33:19.223Z,21.37
2018-09-24T09:35:53.189Z,9.18
2018-09-24T09:38:27.116Z,6.75
2018-09-24T09:41:01.447Z,7.12
2018-09-24T09:43:35.719Z,8.08
2018-09-24T09:46:09.808Z,8.38
2018-09-24T09:48:43.675Z,7.30
2018-09-24T09:51:17.959Z,8.08
2018-09-24T09:53:52.082Z,7.03
2018-09-24T09:56:26.179Z,9.93
2018-09-24T09:59:00.025Z,10.63
2018-09-24T10:01:33.908Z,6.55
2018-09-24T10:04:07.939Z,8.00
2018-09-24T10:06:41.578Z,10.63
2018-09-24T10:09:15.454Z,5.42
2018-09-24T10:11:49.542Z,10.35
2018-09-24T10:14:23.899Z,5.35
2018-09-24T10:16:57.624Z,4.75
2018-09-24T10:19:31.787Z,10.50
2018-09-24T10:22:05.695Z,11.08
2018-09-24T10:24:39.627Z,5.53
2018-09-24T10:27:13.822Z,6.80
2018-09-24T10:29:47.747Z,4.47
2018-09-24T10:32:21.997Z,10.00
2018-09-24T10:34:55.973Z,4.95
2018-09-24T10:37:29.895Z,7.33
2018-09-24T10:40:04.002Z,4.35
2018-09-24T10:42:38.130Z,6.50
2018-09-24T10:45:12.315Z,14.60
2018-09-24T10:47:46.275Z,10.55
2018-09-24T10:50:20.258Z,5.97
2018-09-24T10:52:54.113Z,5.58
2018-09-24T10:55:28.057Z,4.10
2018-09-24T10:58:02.147Z,7.00
2018-09-24T11:00:36.299Z,9.68
2018-09-24T11:03:10.041Z,6.58
2018-09-24T11:05:43.814Z,5.05
2018-09-24T11:08:17.575Z,10.20
2018-09-24T11:10:51.606Z,5.80
2018-09-24T11:13:25.830Z,9.18
2018-09-24T11:16:00.964Z,5.80
2018-09-24T11:18:36.104Z,5.83
2018-09-24T11:21:10.159Z,7.83
2018-09-24T11:23:44.095Z,9.23
2018-09-24T11:28:52.543Z,5.85
2018-09-24T11:31:26.386Z,12.03
2018-09-24T11:34:00.353Z,5.08
2018-09-24T11:36:34.504Z,11.93
2018-09-24T11:39:08.743Z,30.23
2018-09-24T11:41:43.160Z,34.80
2018-09-24T11:44:17.372Z,23.15
2018-09-24T11:46:51.785Z,22.07
2018-09-24T11:49:25.714Z,21.95
2018-09-24T11:52:06.970Z,53.52
2018-09-24T11:54:41.283Z,27.30
2018-09-24T11:57:15.699Z,21.73
2018-09-24T11:59:49.517Z,22.42
2018-09-24T12:02:23.885Z,14.53
2018-09-24T12:04:57.752Z,14.70
2018-09-24T12:07:31.850Z,17.17
2018-09-24T12:10:05.825Z,28.97
2018-09-24T12:12:40.231Z,31.60
2018-09-24T12:15:14.062Z,21.93
2018-09-24T12:17:48.821Z,26.03
2018-09-24T12:20:23.028Z,18.60
2018-09-24T12:22:57.066Z,25.37
2018-09-24T12:25:31.223Z,34.70
2018-09-24T12:28:06.166Z,23.27
2018-09-24T12:30:39.895Z,16.33
2018-09-24T12:33:13.866Z,23.93
2018-09-24T12:35:47.857Z,23.03
2018-09-24T12:38:22.037Z,24.43
2018-09-24T12:40:55.975Z,13.13
2018-09-24T12:43:30.398Z,14.80
2018-09-24T12:46:04.456Z,16.07
2018-09-24T12:48:38.860Z,16.13
2018-09-24T12:51:12.698Z,15.53
2018-09-24T12:53:47.247Z,19.77
2018-09-24T12:56:21.450Z,16.50
2018-09-24T12:58:55.586Z,19.27
2018-09-24T13:01:29.481Z,21.07
2018-09-24T13:04:03.667Z,16.10
2018-09-24T13:06:37.654Z,22.70
2018-09-24T13:09:12.855Z,10.23
2018-09-24T13:11:46.826Z,22.40
2018-09-24T13:14:21.091Z,10.30
2018-09-24T13:16:55.003Z,20.27
2018-09-24T13:19:29.051Z,15.57
2018-09-24T13:22:03.011Z,27.90
2018-09-24T13:24:37.131Z,7.47
2018-09-24T13:27:11.319Z,20.70
2018-09-24T13:29:45.325Z,11.07
2018-09-24T13:32:19.145Z,17.10
2018-09-24T13:34:53.219Z,14.53
2018-09-24T13:37:27.330Z,9.67
2018-09-24T13:40:01.591Z,3.57
2018-09-24T13:42:35.642Z,2.07
2018-09-24T13:45:09.936Z,7.10
2018-09-24T13:47:44.159Z,3.73
2018-09-24T13:50:18.387Z,4.63
2018-09-24T13:52:52.695Z,4.47
2018-09-24T13:55:26.975Z,6.60
2018-09-24T13:58:00.873Z,2.43
2018-09-24T14:00:35.295Z,1.90
2018-09-24T14:03:09.116Z,4.10
2018-09-24T14:05:43.462Z,1.63
2018-09-24T14:08:17.374Z,2.33
2018-09-24T14:10:51.403Z,1.27
2018-09-24T14:13:25.562Z,4.33
2018-09-24T14:16:00.193Z,1.10
2018-09-24T14:18:34.351Z,5.77
2018-09-24T14:21:08.463Z,1.13
2018-09-24T14:23:42.619Z,2.40
2018-09-24T14:26:16.664Z,2.23
2018-09-24T14:28:50.366Z,0.97
2018-09-24T14:31:24.359Z,1.83
2018-09-24T14:33:58.383Z,2.83
2018-09-24T14:36:32.944Z,1.40
2018-09-24T14:39:06.923Z,1.90
2018-09-24T14:41:41.041Z,1.80
2018-09-24T14:44:14.894Z,0.80
2018-09-24T14:46:49.231Z,1.23
2018-09-24T14:49:23.680Z,2.07
2018-09-24T14:51:57.868Z,2.83
2018-09-24T14:54:31.562Z,0.70
2018-09-24T14:57:05.226Z,0.70
2018-09-24T14:59:39.000Z,1.30
2018-09-24T15:02:13.168Z,0.50
2018-09-24T15:04:47.235Z,1.33
2018-09-24T15:07:21.390Z,0.90
2018-09-24T15:09:55.266Z,3.10
2018-09-24T15:12:29.794Z,7.93
2018-09-24T15:15:03.903Z,1.53
2018-09-24T15:17:37.995Z,2.97
2018-09-24T15:20:11.900Z,2.60
2018-09-24T15:22:46.265Z,3.43
2018-09-24T15:25:20.005Z,0.90
2018-09-24T15:27:53.872Z,3.40
2018-09-24T15:30:28.030Z,11.63
2018-09-24T15:33:02.597Z,1.03
2018-09-24T15:35:36.566Z,0.73
2018-09-24T15:38:10.724Z,3.00
2018-09-24T15:40:44.692Z,2.07
2018-09-24T15:43:19.303Z,1.50
2018-09-24T15:45:53.562Z,3.27
2018-09-24T15:48:27.594Z,2.60
2018-09-24T15:51:01.776Z,2.97
2018-09-24T15:53:35.612Z,1.60
2018-09-24T15:56:09.422Z,3.20
2018-09-24T15:58:43.496Z,4.33
2018-09-24T16:01:17.350Z,2.60
2018-09-24T16:03:51.473Z,2.57
2018-09-24T16:06:25.564Z,5.07
2018-09-24T16:08:59.977Z,1.87
2018-09-24T16:11:33.857Z,2.00
2018-09-24T16:14:08.246Z,2.80
2018-09-24T16:16:42.322Z,2.83
2018-09-24T16:19:16.514Z,2.23
2018-09-24T16:21:50.275Z,2.13
2018-09-24T16:24:24.366Z,1.30
2018-09-24T16:26:58.117Z,1.60
2018-09-24T16:29:32.037Z,1.57
2018-09-24T16:32:06.030Z,3.63
2018-09-24T16:34:40.355Z,1.87
2018-09-24T16:37:14.403Z,1.97
2018-09-24T16:39:48.573Z,1.40
2018-09-24T16:42:22.651Z,2.03
2018-09-24T16:44:56.935Z,2.43
2018-09-24T16:47:30.858Z,1.23
2018-09-24T16:50:05.325Z,1.87
2018-09-24T16:52:39.474Z,1.27
2018-09-24T16:55:13.662Z,1.73
2018-09-24T16:57:47.706Z,3.00
2018-09-24T17:00:21.922Z,5.07
2018-09-24T17:02:55.715Z,1.93
2018-09-24T17:05:30.034Z,1.17
2018-09-24T17:08:04.039Z,1.90
2018-09-24T17:10:38.446Z,2.50
2018-09-24T17:13:12.478Z,1.40
2018-09-24T17:15:46.413Z,2.03
2018-09-24T17:18:20.572Z,2.00
2018-09-24T17:20:54.266Z,1.60
2018-09-24T17:23:27.948Z,1.70
2018-09-24T17:26:01.795Z,2.77
2018-09-24T17:28:35.782Z,3.23
2018-09-24T17:31:09.858Z,1.60
2018-09-24T17:33:44.018Z,3.10
2018-09-24T17:36:18.287Z,3.00
2018-09-24T17:38:52.328Z,1.80
2018-09-24T17:41:26.587Z,1.63
2018-09-24T17:44:00.519Z,1.87
2018-09-24T17:46:34.601Z,1.90
2018-09-24T17:49:08.518Z,2.23
2018-09-24T17:51:42.715Z,4.90
2018-09-24T17:54:16.503Z,5.50
2018-09-24T17:56:50.330Z,3.10
2018-09-24T17:59:24.251Z,3.43
2018-09-24T18:01:58.591Z,3.90
2018-09-24T18:04:32.475Z,4.20
2018-09-24T18:07:06.802Z,4.27
2018-09-24T18:09:40.715Z,4.53
2018-09-24T18:12:14.503Z,5.27
2018-09-24T18:14:48.442Z,6.00
2018-09-24T18:17:22.759Z,5.80
2018-09-24T18:19:57.053Z,5.10
2018-09-24T18:22:31.183Z,7.00
2018-09-24T18:25:05.055Z,4.80
2018-09-24T18:27:39.571Z,5.30
2018-09-24T18:30:13.430Z,6.53
2018-09-24T18:32:47.679Z,5.60
2018-09-24T18:35:21.724Z,4.97
2018-09-24T18:37:56.352Z,4.83
2018-09-24T18:40:30.206Z,7.30
2018-09-24T18:43:04.618Z,5.17
2018-09-24T18:45:38.435Z,6.47
2018-09-24T18:48:12.559Z,4.37
2018-09-24T18:50:46.270Z,6.67
2018-09-24T18:53:20.203Z,4.27
2018-09-24T18:55:54.608Z,5.13
2018-09-24T18:58:28.574Z,4.17
2018-09-24T19:01:02.434Z,4.47
2018-09-24T19:03:36.726Z,5.13
2018-09-24T19:06:11.060Z,5.17
2018-09-24T19:08:45.108Z,5.17
2018-09-24T19:11:27.703Z,4.30
2018-09-24T19:13:53.787Z,4.50
2018-09-24T19:16:27.559Z,4.73
2018-09-24T19:19:01.433Z,5.37
2018-09-24T19:21:35.259Z,4.80
2018-09-24T19:24:09.142Z,5.43
2018-09-24T19:26:43.310Z,5.77
2018-09-24T19:29:17.461Z,5.73
2018-09-24T19:31:51.505Z,5.63
2018-09-24T19:34:25.281Z,5.27
2018-09-24T19:36:59.255Z,5.17
2018-09-24T19:39:33.250Z,4.87
2018-09-24T19:42:07.165Z,4.53
2018-09-24T19:44:41.518Z,5.13
2018-09-24T19:47:15.447Z,4.83
2018-09-24T19:49:49.411Z,4.77
2018-09-24T19:52:23.258Z,2.97
2018-09-24T19:54:57.879Z,4.63
2018-09-24T19:57:32.163Z,4.50
2018-09-24T20:00:06.279Z,3.77
2018-09-24T20:02:40.166Z,5.43
2018-09-24T20:05:14.519Z,4.77
2018-09-24T20:07:48.582Z,4.93
2018-09-24T20:10:22.901Z,4.47
2018-09-24T20:12:57.027Z,4.10
2018-09-24T20:15:31.181Z,4.77
2018-09-24T20:18:05.030Z,6.00
2018-09-24T20:20:39.075Z,9.30
2018-09-24T20:23:12.819Z,8.20
2018-09-24T20:25:47.437Z,6.00
2018-09-24T20:28:21.493Z,5.77
2018-09-24T20:30:56.051Z,5.80
2018-09-24T20:33:30.043Z,5.00
2018-09-24T20:36:04.422Z,5.27
2018-09-24T20:38:38.352Z,7.87
2018-09-24T20:41:12.704Z,4.77
2018-09-24T20:43:46.614Z,3.30
2018-09-24T20:46:20.751Z,3.63
2018-09-24T20:48:54.619Z,2.13
2018-09-24T20:51:29.194Z,2.37
2018-09-24T20:54:03.251Z,1.93
2018-09-24T20:56:37.580Z,2.20
2018-09-24T20:59:11.492Z,1.87
2018-09-24T21:01:45.882Z,2.10
2018-09-24T21:04:19.866Z,1.40
2018-09-24T21:06:54.080Z,1.37
2018-09-24T21:09:28.079Z,1.50
2018-09-24T21:12:02.189Z,1.90
2018-09-24T21:14:36.238Z,2.87
2018-09-24T21:17:10.544Z,1.50
2018-09-24T21:19:44.938Z,1.40
2018-09-24T21:22:18.782Z,1.40
2018-09-24T21:24:52.778Z,1.30
2018-09-24T21:27:27.208Z,1.70
2018-09-24T21:30:01.115Z,3.53
2018-09-24T21:32:35.104Z,1.40
2018-09-24T21:35:09.208Z,1.53
2018-09-24T21:37:43.351Z,1.57
2018-09-24T21:40:17.407Z,1.60
2018-09-24T21:42:51.842Z,2.07
2018-09-24T21:45:25.719Z,2.47
2018-09-24T21:47:59.988Z,1.60
2018-09-24T21:50:33.607Z,1.73
2018-09-24T21:53:07.562Z,1.50
2018-09-24T21:55:41.693Z,3.27
2018-09-24T21:58:15.742Z,1.60
2018-09-24T22:00:49.546Z,3.10
2018-09-24T22:03:23.655Z,2.53
2018-09-24T22:05:57.715Z,6.13
2018-09-24T22:08:32.133Z,3.03
2018-09-24T22:11:06.162Z,2.10
2018-09-24T22:13:40.351Z,4.50
2018-09-24T22:16:14.196Z,1.73
2018-09-24T22:18:47.902Z,4.23
2018-09-24T22:21:21.700Z,1.93
2018-09-24T22:23:55.942Z,3.33
2018-09-24T22:26:30.138Z,3.30
2018-09-24T22:29:04.196Z,2.10
2018-09-24T22:31:38.058Z,4.00
2018-09-24T22:34:12.314Z,4.67
2018-09-24T22:36:46.535Z,2.60
2018-09-24T22:39:20.458Z,4.80
2018-09-24T22:41:54.741Z,5.37
2018-09-24T22:44:29.068Z,3.67
2018-09-24T22:47:02.777Z,2.90
2018-09-24T22:49:36.915Z,5.90
2018-09-24T22:52:10.747Z,3.50
2018-09-24T22:54:45.032Z,2.87
2018-09-24T22:57:19.177Z,3.00
2018-09-24T22:59:53.367Z,3.50
2018-09-24T23:02:27.153Z,3.17
2018-09-24T23:05:01.431Z,3.17
2018-09-24T23:07:35.485Z,5.10
2018-09-24T23:10:09.798Z,5.83
2018-09-24T23:12:43.926Z,3.37
2018-09-24T23:15:18.011Z,3.50
2018-09-24T23:17:51.865Z,4.20
2018-09-24T23:20:25.662Z,3.40
2018-09-24T23:23:00.168Z,3.57
2018-09-24T23:25:34.027Z,3.47
2018-09-24T23:28:08.098Z,3.50
2018-09-24T23:30:42.028Z,4.17
2018-09-24T23:33:16.262Z,3.00
2018-09-24T23:35:50.164Z,3.60
2018-09-24T23:38:24.059Z,4.30
2018-09-24T23:40:57.991Z,3.70
2018-09-24T23:43:32.000Z,3.57
2018-09-24T23:46:05.874Z,4.33
2018-09-24T23:48:39.750Z,6.63
2018-09-24T23:51:13.854Z,4.27
2018-09-24T23:53:48.373Z,3.47
2018-09-24T23:56:22.241Z,4.03
2018-09-24T23:58:56.030Z,3.37
